createdAt,value
2023-03-10T00:01:55.122Z,99028.81
2023-03-10T00:04:57.730Z,99019.75
2023-03-10T00:08:00.167Z,99020.03
2023-03-10T00:11:02.522Z,98986.09
2023-03-10T00:14:04.893Z,98875.78
2023-03-10T00:17:07.531Z,98999.28
2023-03-10T00:20:12.395Z,98983.75
2023-03-10T00:23:14.753Z,98985.19
2023-03-10T00:26:18.360Z,98993.81
2023-03-10T00:29:22.159Z,98984.94
2023-03-10T00:32:24.542Z,98981.56
2023-03-10T00:35:26.893Z,98978.31
2023-03-10T00:38:29.581Z,98973.31
2023-03-10T00:41:34.181Z,98969.59
2023-03-10T00:44:36.549Z,98965.63
2023-03-10T00:47:38.876Z,98975.16
2023-03-10T00:50:41.183Z,98960.41
2023-03-10T00:53:44.072Z,98961.78
2023-03-10T00:56:46.645Z,98947.59
2023-03-10T00:59:52.095Z,98948.25
2023-03-10T01:02:54.957Z,98953.38
2023-03-10T01:05:58.062Z,98940.91
2023-03-10T01:09:01.106Z,98935.03
2023-03-10T01:12:03.580Z,98931.38
2023-03-10T01:15:06.891Z,98921.53
2023-03-10T01:18:09.213Z,98912.56
2023-03-10T01:21:20.842Z,98900.09
2023-03-10T01:24:23.419Z,98913.16
2023-03-10T01:27:25.685Z,98902.75
2023-03-10T01:30:29.399Z,98877.97
2023-03-10T01:33:31.820Z,98902.03
2023-03-10T01:36:34.466Z,98895.19
2023-03-10T01:39:37.433Z,98888.44
2023-03-10T01:42:39.771Z,98889.16
2023-03-10T01:45:42.019Z,98867.28
2023-03-10T01:48:44.512Z,98866.72
2023-03-10T01:51:51.396Z,98859.59
2023-03-10T01:54:57.512Z,98843.34
2023-03-10T01:58:00.597Z,98857.41
2023-03-10T02:01:03.512Z,98848.25
2023-03-10T02:04:09.681Z,98829.00
2023-03-10T02:07:13.858Z,98813.91
2023-03-10T02:10:17.109Z,98823.56
2023-03-10T02:13:19.569Z,98821.94
2023-03-10T02:16:24.175Z,98811.81
2023-03-10T02:19:35.766Z,98821.88
2023-03-10T02:22:40.561Z,98808.03
2023-03-10T02:25:50.512Z,98806.53
2023-03-10T02:28:53.629Z,98793.22
2023-03-10T02:31:56.905Z,98780.44
2023-03-10T02:34:59.450Z,98728.09
2023-03-10T02:38:01.856Z,98768.31
2023-03-10T02:41:20.785Z,98780.69
2023-03-10T02:44:24.722Z,98777.38
2023-03-10T02:47:27.128Z,98756.22
2023-03-10T02:50:34.988Z,98767.72
2023-03-10T02:53:37.508Z,98747.13
2023-03-10T02:56:42.511Z,98761.91
2023-03-10T02:59:46.241Z,98744.69
2023-03-10T03:02:48.878Z,98740.66
2023-03-10T03:05:52.069Z,98754.34
2023-03-10T03:08:55.084Z,98725.31
2023-03-10T03:12:00.082Z,98728.13
2023-03-10T03:15:02.925Z,98712.84
2023-03-10T03:18:06.162Z,98698.59
2023-03-10T03:21:13.052Z,98707.31
2023-03-10T03:24:16.105Z,98706.06
2023-03-10T03:27:18.545Z,98703.97
2023-03-10T03:30:27.185Z,98687.78
2023-03-10T03:33:32.731Z,98679.44
2023-03-10T03:36:35.457Z,98667.47
2023-03-10T03:39:38.304Z,98678.59
2023-03-10T03:42:44.551Z,98678.75
2023-03-10T03:45:47.556Z,98669.84
2023-03-10T03:48:50.293Z,98647.16
2023-03-10T03:51:53.262Z,98659.09
2023-03-10T03:54:58.852Z,98649.78
2023-03-10T03:58:01.457Z,98646.69
2023-03-10T04:01:03.922Z,98647.00
2023-03-10T04:04:12.248Z,98641.44
2023-03-10T04:07:15.350Z,98597.44
2023-03-10T04:10:23.657Z,98623.28
2023-03-10T04:13:26.489Z,98615.50
2023-03-10T04:16:28.976Z,98613.97
2023-03-10T04:19:32.271Z,98607.41
2023-03-10T04:22:41.221Z,98601.19
2023-03-10T04:25:44.818Z,98588.34
2023-03-10T04:28:48.292Z,98592.94
2023-03-10T04:32:04.913Z,98580.56
2023-03-10T04:35:12.966Z,98575.22
2023-03-10T04:38:16.415Z,98569.72
2023-03-10T04:41:19.067Z,98561.38
2023-03-10T04:44:30.941Z,98541.91
2023-03-10T04:47:36.616Z,98538.94
2023-03-10T04:50:39.195Z,98531.78
2023-03-10T04:53:41.552Z,98521.53
2023-03-10T04:56:45.143Z,98521.72
2023-03-10T04:59:47.603Z,98514.91
2023-03-10T05:02:50.345Z,98513.31
2023-03-10T05:05:53.190Z,98503.78
2023-03-10T05:08:56.589Z,98497.16
2023-03-10T05:12:00.069Z,98503.91
2023-03-10T05:15:07.058Z,98506.38
2023-03-10T05:18:11.194Z,98494.28
2023-03-10T05:21:15.690Z,98493.66
2023-03-10T05:24:20.344Z,98495.84
2023-03-10T05:27:23.250Z,98476.56
2023-03-10T05:30:26.466Z,98472.50
2023-03-10T05:33:31.642Z,98457.84
2023-03-10T05:36:36.120Z,98452.38
2023-03-10T05:39:41.331Z,98454.50
2023-03-10T05:42:48.829Z,98446.63
2023-03-10T05:45:58.370Z,98451.84
2023-03-10T05:49:02.400Z,98439.38
2023-03-10T05:52:05.555Z,98436.22
2023-03-10T05:55:12.223Z,98432.16
2023-03-10T05:58:14.749Z,98427.56
2023-03-10T06:01:17.851Z,98429.56
2023-03-10T06:04:20.216Z,98418.94
2023-03-10T06:07:22.673Z,98420.41
2023-03-10T06:10:25.037Z,98396.06
2023-03-10T06:13:27.657Z,98382.59
2023-03-10T06:16:30.173Z,98389.75
2023-03-10T06:19:32.513Z,98403.38
2023-03-10T06:22:35.010Z,98402.94
2023-03-10T06:25:38.015Z,98393.25
2023-03-10T06:28:41.942Z,98398.31
2023-03-10T06:31:44.196Z,98388.78
2023-03-10T06:34:46.684Z,98384.19
2023-03-10T06:37:49.041Z,98383.13
2023-03-10T06:40:51.341Z,98369.97
2023-03-10T06:43:53.682Z,98368.47
2023-03-10T06:46:56.100Z,98377.28
2023-03-10T06:49:58.649Z,98367.34
2023-03-10T06:53:00.977Z,98384.38
2023-03-10T06:56:04.913Z,98372.03
2023-03-10T06:59:07.457Z,98371.56
2023-03-10T07:02:12.497Z,98375.75
2023-03-10T07:05:15.265Z,98376.16
2023-03-10T07:08:17.602Z,98380.41
2023-03-10T07:11:19.945Z,98384.81
2023-03-10T07:14:22.420Z,98382.44
2023-03-10T07:17:25.116Z,98370.78
2023-03-10T07:20:27.519Z,98373.88
2023-03-10T07:23:29.943Z,98376.41
2023-03-10T07:26:32.294Z,98370.66
2023-03-10T07:29:34.891Z,98352.56
2023-03-10T07:32:37.368Z,98351.31
2023-03-10T07:35:40.080Z,98325.31
2023-03-10T07:38:42.506Z,98328.09
2023-03-10T07:41:45.079Z,98335.88
2023-03-10T07:44:47.459Z,98290.72
2023-03-10T07:47:51.488Z,98311.91
2023-03-10T07:50:59.982Z,98310.66
2023-03-10T07:54:02.369Z,98308.50
2023-03-10T07:57:04.809Z,98281.31
2023-03-10T08:00:07.937Z,98270.22
2023-03-10T08:03:16.333Z,98275.41
2023-03-10T08:06:22.022Z,98270.53
2023-03-10T08:09:24.568Z,98268.25
2023-03-10T08:12:27.005Z,98269.63
2023-03-10T08:15:30.165Z,98260.53
2023-03-10T08:18:32.953Z,98265.69
2023-03-10T08:21:35.378Z,98250.03
2023-03-10T08:24:39.300Z,98251.91
2023-03-10T08:27:41.840Z,98206.78
2023-03-10T08:31:01.222Z,98241.13
2023-03-10T08:34:06.041Z,98240.63
2023-03-10T08:37:08.419Z,98236.09
2023-03-10T08:40:13.929Z,98227.84
2023-03-10T08:43:16.364Z,98223.25
2023-03-10T08:46:19.668Z,98203.84
2023-03-10T08:49:22.847Z,98191.00
2023-03-10T08:52:25.345Z,98196.16
2023-03-10T08:55:27.685Z,98181.19
2023-03-10T08:58:30.066Z,98178.75
2023-03-10T09:01:34.758Z,98183.06
2023-03-10T09:04:37.153Z,98197.78
2023-03-10T09:07:39.648Z,98196.97
2023-03-10T09:10:44.480Z,98176.44
2023-03-10T09:13:48.300Z,98166.53
2023-03-10T09:16:50.837Z,98159.31
2023-03-10T09:19:53.307Z,98167.63
2023-03-10T09:22:56.380Z,98161.47
2023-03-10T09:25:58.830Z,98163.34
2023-03-10T09:29:02.120Z,98170.53
2023-03-10T09:32:05.743Z,98161.97
2023-03-10T09:35:09.221Z,98147.78
2023-03-10T09:38:13.051Z,98159.63
2023-03-10T09:41:56.583Z,98157.72
2023-03-10T09:45:43.163Z,98162.50
2023-03-10T09:49:20.816Z,98156.34
2023-03-10T09:52:30.026Z,98159.06
2023-03-10T09:55:47.553Z,98138.13
2023-03-10T09:59:02.311Z,98141.88
2023-03-10T10:02:16.043Z,98142.16
2023-03-10T10:05:26.519Z,98132.78
2023-03-10T10:08:31.152Z,98135.19
2023-03-10T10:11:36.955Z,98134.97
2023-03-10T10:14:42.700Z,98141.13
2023-03-10T10:17:58.626Z,98126.59
2023-03-10T10:21:18.734Z,98125.56
2023-03-10T10:24:21.789Z,98099.53
2023-03-10T10:27:25.574Z,98112.13
2023-03-10T10:30:37.177Z,98107.56
2023-03-10T10:34:01.692Z,98112.38
2023-03-10T10:37:04.347Z,98110.44
2023-03-10T10:40:24.266Z,98089.50
2023-03-10T10:43:26.753Z,98099.16
2023-03-10T10:46:30.656Z,98099.16
2023-03-10T10:49:34.201Z,98095.47
2023-03-10T10:52:36.494Z,98039.41
2023-03-10T10:55:39.103Z,98089.78
2023-03-10T10:58:42.996Z,98087.13
2023-03-10T11:01:48.027Z,98092.19
2023-03-10T11:04:50.429Z,98058.94
2023-03-10T11:07:53.134Z,98076.63
2023-03-10T11:11:24.659Z,98077.13
2023-03-10T11:14:30.025Z,98085.53
2023-03-10T11:17:38.681Z,98071.31
2023-03-10T11:20:47.273Z,98082.00
2023-03-10T11:24:04.490Z,98073.00
2023-03-10T11:27:36.174Z,98064.94
2023-03-10T11:30:39.936Z,98064.41
2023-03-10T11:34:04.056Z,98064.72
2023-03-10T11:37:30.129Z,98052.31
2023-03-10T11:40:54.324Z,98036.38
2023-03-10T11:44:02.174Z,98054.06
2023-03-10T11:47:12.759Z,98059.84
2023-03-10T11:50:42.545Z,98058.63
2023-03-10T11:53:50.913Z,98055.97
2023-03-10T11:56:53.874Z,98053.66
2023-03-10T11:59:58.853Z,98046.22
2023-03-10T12:03:27.747Z,98048.13
2023-03-10T12:06:37.415Z,98047.53
2023-03-10T12:09:50.862Z,98046.00
2023-03-10T12:12:54.640Z,98053.50
2023-03-10T12:16:02.183Z,98041.81
2023-03-10T12:19:06.589Z,98032.63
2023-03-10T12:22:38.834Z,98039.63
2023-03-10T12:25:43.922Z,98029.94
2023-03-10T12:28:46.279Z,98026.94
2023-03-10T12:31:51.697Z,98019.06
2023-03-10T12:35:23.112Z,98035.13
2023-03-10T12:38:47.144Z,98033.44
2023-03-10T12:41:50.655Z,98011.97
2023-03-10T12:44:58.207Z,98025.56
2023-03-10T12:48:22.359Z,98043.00
2023-03-10T12:51:26.391Z,98045.75
2023-03-10T12:54:28.547Z,98045.31
2023-03-10T12:57:49.649Z,98040.84
2023-03-10T13:00:57.522Z,98032.00
2023-03-10T13:04:00.180Z,98057.41
2023-03-10T13:07:04.254Z,98057.41
2023-03-10T13:10:06.596Z,98054.38
2023-03-10T13:13:10.238Z,98053.81
2023-03-10T13:16:21.283Z,98039.25
2023-03-10T13:19:25.870Z,98038.34
2023-03-10T13:22:28.957Z,98055.38
2023-03-10T13:25:33.948Z,98046.00
2023-03-10T13:28:36.552Z,98046.03
2023-03-10T13:31:39.031Z,98044.91
2023-03-10T13:34:41.379Z,98039.81
2023-03-10T13:37:43.724Z,98043.22
2023-03-10T13:40:52.107Z,98050.56
2023-03-10T13:43:55.558Z,98046.13
2023-03-10T13:47:00.902Z,98044.97
2023-03-10T13:50:03.620Z,98033.31
2023-03-10T13:53:05.930Z,98033.91
2023-03-10T13:56:48.691Z,98048.97
2023-03-10T13:59:51.573Z,97993.38
2023-03-10T14:02:54.323Z,98039.69
2023-03-10T14:05:56.653Z,98036.25
2023-03-10T14:09:14.092Z,98042.28
2023-03-10T14:12:37.238Z,98037.25
2023-03-10T14:15:39.806Z,98046.41
2023-03-10T14:18:44.039Z,98046.88
2023-03-10T14:22:00.295Z,98051.91
2023-03-10T14:25:12.457Z,98056.34
2023-03-10T14:28:18.212Z,98062.28
2023-03-10T14:31:23.213Z,98067.59
2023-03-10T14:34:26.479Z,98054.81
2023-03-10T14:37:28.831Z,98056.59
2023-03-10T14:40:32.072Z,98048.78
2023-03-10T14:43:35.685Z,98057.28
2023-03-10T14:46:38.433Z,98055.44
2023-03-10T14:49:40.911Z,98050.06
2023-03-10T14:52:43.259Z,98062.53
2023-03-10T14:55:50.156Z,98057.16
2023-03-10T14:58:53.783Z,98054.63
2023-03-10T15:01:57.253Z,98061.13
2023-03-10T15:04:59.630Z,98052.03
2023-03-10T15:08:05.212Z,98054.34
2023-03-10T15:11:08.406Z,98052.97
2023-03-10T15:14:19.151Z,98051.63
2023-03-10T15:17:22.402Z,98051.09
2023-03-10T15:20:25.551Z,98059.47
2023-03-10T15:23:28.723Z,98061.06
2023-03-10T15:26:31.046Z,98054.72
2023-03-10T15:29:33.449Z,98058.59
2023-03-10T15:32:35.845Z,98066.81
2023-03-10T15:35:39.091Z,98057.19
2023-03-10T15:38:41.498Z,98042.38
2023-03-10T15:41:44.026Z,98030.84
2023-03-10T15:44:49.563Z,98036.19
2023-03-10T15:47:52.028Z,98019.00
2023-03-10T15:50:54.345Z,98037.69
2023-03-10T15:53:56.727Z,98030.66
2023-03-10T15:56:59.060Z,98043.53
2023-03-10T16:00:01.638Z,98044.06
2023-03-10T16:03:04.054Z,98042.56
2023-03-10T16:06:06.733Z,98043.38
2023-03-10T16:09:09.221Z,98048.75
2023-03-10T16:12:11.766Z,98046.69
2023-03-10T16:15:17.960Z,98052.31
2023-03-10T16:18:20.693Z,98044.28
2023-03-10T16:21:23.116Z,98052.09
2023-03-10T16:24:25.610Z,98053.41
2023-03-10T16:27:28.204Z,98037.53
2023-03-10T16:30:30.716Z,98039.19
2023-03-10T16:33:33.304Z,98031.09
2023-03-10T16:36:36.891Z,98039.22
2023-03-10T16:39:39.474Z,98048.69
2023-03-10T16:42:45.693Z,98045.19
2023-03-10T16:45:51.106Z,98044.56
2023-03-10T16:48:55.085Z,98046.19
2023-03-10T16:51:57.396Z,98033.88
2023-03-10T16:55:01.697Z,98032.31
2023-03-10T16:58:04.193Z,98028.28
2023-03-10T17:01:06.819Z,98041.16
2023-03-10T17:04:09.208Z,98051.97
2023-03-10T17:07:11.693Z,98050.63
2023-03-10T17:10:13.992Z,98060.56
2023-03-10T17:13:16.339Z,98066.22
2023-03-10T17:16:19.393Z,98067.81
2023-03-10T17:19:30.331Z,98061.16
2023-03-10T17:22:32.792Z,98058.94
2023-03-10T17:25:35.729Z,98054.09
2023-03-10T17:28:39.213Z,98048.47
2023-03-10T17:31:43.973Z,98046.59
2023-03-10T17:34:52.058Z,98051.16
2023-03-10T17:37:54.515Z,98049.28
2023-03-10T17:40:56.856Z,98050.38
2023-03-10T17:43:59.272Z,98013.03
2023-03-10T17:47:01.697Z,98023.78
2023-03-10T17:50:05.143Z,98031.28
2023-03-10T17:53:07.447Z,98023.50
2023-03-10T17:56:10.290Z,98024.81
2023-03-10T17:59:16.604Z,98026.75
2023-03-10T18:02:18.975Z,98027.00
2023-03-10T18:05:21.364Z,98007.97
2023-03-10T18:08:23.888Z,98024.31
2023-03-10T18:11:26.926Z,98031.59
2023-03-10T18:14:29.343Z,98021.69
2023-03-10T18:17:31.746Z,98033.22
2023-03-10T18:20:36.491Z,98028.34
2023-03-10T18:23:39.100Z,98023.25
2023-03-10T18:26:45.415Z,98020.56
2023-03-10T18:29:48.005Z,98002.09
2023-03-10T18:32:50.526Z,97990.81
2023-03-10T18:35:53.076Z,97976.38
2023-03-10T18:38:56.310Z,98012.00
2023-03-10T18:41:58.755Z,98005.78
2023-03-10T18:45:01.207Z,98014.69
2023-03-10T18:48:03.570Z,98005.56
2023-03-10T18:51:06.375Z,98001.28
2023-03-10T18:54:08.804Z,98007.72
2023-03-10T18:57:11.764Z,97995.38
2023-03-10T19:00:15.654Z,98001.81
2023-03-10T19:03:19.237Z,97981.47
2023-03-10T19:06:22.008Z,97995.66
2023-03-10T19:09:24.608Z,98008.28
2023-03-10T19:12:28.682Z,98002.38
2023-03-10T19:15:31.128Z,97993.22
2023-03-10T19:18:33.586Z,97974.72
2023-03-10T19:21:37.168Z,97984.41
2023-03-10T19:24:39.944Z,97986.59
2023-03-10T19:27:42.534Z,97976.31
2023-03-10T19:30:44.940Z,97962.13
2023-03-10T19:33:47.343Z,97955.66
2023-03-10T19:36:49.744Z,97953.50
2023-03-10T19:39:52.114Z,97940.97
2023-03-10T19:42:54.560Z,97915.81
2023-03-10T19:46:07.872Z,97936.13
2023-03-10T19:49:10.224Z,97938.34
2023-03-10T19:52:12.684Z,97928.94
2023-03-10T19:55:19.749Z,97928.41
2023-03-10T19:58:23.110Z,97929.19
2023-03-10T20:01:27.000Z,97946.34
2023-03-10T20:04:31.920Z,97954.66
2023-03-10T20:07:34.499Z,97950.09
2023-03-10T20:10:36.862Z,97935.00
2023-03-10T20:13:39.652Z,97885.75
2023-03-10T20:16:42.058Z,97923.00
2023-03-10T20:19:44.573Z,97903.66
2023-03-10T20:22:49.563Z,97911.72
2023-03-10T20:25:51.896Z,97898.53
2023-03-10T20:28:54.452Z,97889.16
2023-03-10T20:31:56.824Z,97909.28
2023-03-10T20:34:59.266Z,97906.88
2023-03-10T20:38:02.287Z,97904.22
2023-03-10T20:41:04.817Z,97895.34
2023-03-10T20:44:09.697Z,97904.75
2023-03-10T20:47:12.150Z,97899.38
2023-03-10T20:50:16.040Z,97889.94
2023-03-10T20:53:18.243Z,97892.41
2023-03-10T20:56:20.781Z,97890.25
2023-03-10T20:59:23.387Z,97885.44
2023-03-10T21:02:25.826Z,97875.53
2023-03-10T21:05:29.132Z,97881.66
2023-03-10T21:08:31.581Z,97823.25
2023-03-10T21:11:35.235Z,97878.41
2023-03-10T21:14:37.584Z,97880.59
2023-03-10T21:17:39.893Z,97885.41
2023-03-10T21:20:42.446Z,97873.06
2023-03-10T21:23:44.824Z,97867.19
2023-03-10T21:26:47.370Z,97865.84
2023-03-10T21:29:49.823Z,97877.38
2023-03-10T21:32:52.237Z,97871.22
2023-03-10T21:35:54.586Z,97876.84
2023-03-10T21:38:57.369Z,97872.03
2023-03-10T21:41:59.672Z,97871.47
2023-03-10T21:45:02.087Z,97816.09
2023-03-10T21:48:05.083Z,97851.09
2023-03-10T21:51:09.899Z,97835.81
2023-03-10T21:54:12.402Z,97833.31
2023-03-10T21:57:14.719Z,97828.28
2023-03-10T22:00:19.466Z,97809.25
2023-03-10T22:03:22.024Z,97835.03
2023-03-10T22:06:24.573Z,97835.00
2023-03-10T22:09:28.578Z,97829.63
2023-03-10T22:12:31.012Z,97825.84
2023-03-10T22:15:33.514Z,97824.28
2023-03-10T22:18:35.780Z,97801.47
2023-03-10T22:21:38.454Z,97800.72
2023-03-10T22:24:41.744Z,97786.81
2023-03-10T22:27:46.125Z,97825.19
2023-03-10T22:30:48.450Z,97826.56
2023-03-10T22:33:50.942Z,97699.91
2023-03-10T22:36:53.645Z,97817.53
2023-03-10T22:39:55.981Z,97801.72
2023-03-10T22:42:58.874Z,97789.91
2023-03-10T22:46:17.260Z,97782.69
2023-03-10T22:49:19.714Z,97779.16
2023-03-10T22:52:22.077Z,97771.41
2023-03-10T22:55:25.177Z,97771.44
2023-03-10T22:58:28.125Z,97770.88
2023-03-10T23:01:30.996Z,97771.13
2023-03-10T23:04:33.401Z,97769.31
2023-03-10T23:07:35.767Z,97752.97
2023-03-10T23:10:38.933Z,97760.41
2023-03-10T23:13:41.899Z,97743.00
2023-03-10T23:16:44.269Z,97732.25
2023-03-10T23:19:51.300Z,97739.34
2023-03-10T23:22:54.382Z,97736.28
2023-03-10T23:25:56.965Z,97747.81
2023-03-10T23:28:59.290Z,97740.06
2023-03-10T23:32:01.589Z,97743.84
2023-03-10T23:35:09.116Z,97749.19
2023-03-10T23:38:11.599Z,97742.28
2023-03-10T23:41:14.303Z,97735.88
2023-03-10T23:44:16.727Z,97757.81
2023-03-10T23:47:19.043Z,97770.25
2023-03-10T23:50:26.871Z,97795.69
2023-03-10T23:53:29.438Z,97793.31
2023-03-10T23:56:31.950Z,97787.47
2023-03-10T23:59:34.403Z,97774.31
